createdAt,value
2023-02-13T00:00:34.905Z,99.90
2023-02-13T00:03:02.238Z,99.90
2023-02-13T00:05:29.207Z,99.90
2023-02-13T00:07:57.288Z,99.90
2023-02-13T00:10:24.629Z,99.90
2023-02-13T00:12:51.559Z,99.90
2023-02-13T00:15:18.665Z,99.90
2023-02-13T00:17:45.643Z,99.90
2023-02-13T00:20:12.879Z,99.90
2023-02-13T00:22:40.353Z,99.90
2023-02-13T00:25:08.446Z,99.90
2023-02-13T00:27:35.479Z,99.90
2023-02-13T00:30:03.330Z,99.90
2023-02-13T00:32:31.151Z,99.90
2023-02-13T00:34:58.357Z,99.90
2023-02-13T00:37:25.884Z,99.90
2023-02-13T00:39:53.226Z,99.90
2023-02-13T00:42:24.144Z,99.90
2023-02-13T00:44:51.095Z,99.90
2023-02-13T00:47:18.249Z,99.90
2023-02-13T00:49:45.117Z,99.90
2023-02-13T00:52:12.483Z,99.90
2023-02-13T00:54:39.352Z,99.90
2023-02-13T00:57:06.271Z,99.90
2023-02-13T00:59:33.238Z,99.90
2023-02-13T01:02:00.332Z,99.90
2023-02-13T01:04:27.346Z,99.90
2023-02-13T01:06:54.238Z,99.90
2023-02-13T01:09:21.133Z,99.90
2023-02-13T01:11:48.021Z,99.90
2023-02-13T01:14:14.890Z,99.90
2023-02-13T01:16:41.767Z,99.90
2023-02-13T01:19:08.656Z,99.90
2023-02-13T01:21:35.579Z,99.90
2023-02-13T01:24:06.182Z,99.90
2023-02-13T01:26:33.145Z,99.90
2023-02-13T01:29:00.150Z,99.90
2023-02-13T01:31:27.765Z,99.90
2023-02-13T01:33:59.829Z,99.90
2023-02-13T01:36:27.405Z,99.90
2023-02-13T01:38:56.992Z,99.90
2023-02-13T01:41:26.032Z,99.90
2023-02-13T01:43:54.473Z,99.90
2023-02-13T01:46:38.682Z,99.90
2023-02-13T01:49:18.812Z,99.90
2023-02-13T01:51:47.352Z,99.90
2023-02-13T01:54:18.513Z,99.90
2023-02-13T01:56:53.873Z,99.90
2023-02-13T01:59:29.538Z,99.90
2023-02-13T02:01:58.547Z,99.90
2023-02-13T02:04:31.103Z,99.90
2023-02-13T02:07:11.689Z,99.90
2023-02-13T02:09:41.081Z,99.90
2023-02-13T02:12:38.147Z,99.90
2023-02-13T02:15:06.466Z,99.90
2023-02-13T02:17:33.808Z,99.90
2023-02-13T02:20:46.062Z,99.90
2023-02-13T02:23:36.717Z,99.90
2023-02-13T02:26:18.915Z,99.90
2023-02-13T02:29:12.149Z,99.90
2023-02-13T02:31:48.372Z,99.90
2023-02-13T02:34:51.858Z,99.90
2023-02-13T02:37:30.897Z,99.90
2023-02-13T02:40:12.840Z,99.90
2023-02-13T02:43:08.631Z,99.90
2023-02-13T02:45:53.572Z,99.90
2023-02-13T02:48:52.780Z,99.90
2023-02-13T02:51:25.202Z,99.90
2023-02-13T02:54:27.854Z,99.90
2023-02-13T02:56:59.457Z,99.90
2023-02-13T02:59:46.861Z,99.90
2023-02-13T03:02:34.503Z,99.90
2023-02-13T03:05:21.649Z,99.90
2023-02-13T03:07:49.492Z,99.90
2023-02-13T03:10:50.112Z,99.90
2023-02-13T03:13:39.952Z,99.90
2023-02-13T03:16:30.158Z,99.90
2023-02-13T03:19:16.798Z,99.90
2023-02-13T03:22:20.254Z,99.90
2023-02-13T03:25:04.924Z,99.90
2023-02-13T03:28:08.459Z,99.90
2023-02-13T03:31:01.006Z,99.90
2023-02-13T03:33:43.327Z,99.90
2023-02-13T03:36:44.206Z,99.90
2023-02-13T03:39:35.215Z,99.90
2023-02-13T03:42:06.846Z,99.90
2023-02-13T03:44:39.824Z,99.90
2023-02-13T03:47:09.415Z,99.90
2023-02-13T03:50:03.354Z,99.90
2023-02-13T03:52:36.065Z,99.90
2023-02-13T03:55:41.620Z,99.90
2023-02-13T03:58:33.122Z,99.90
2023-02-13T04:01:02.886Z,99.90
2023-02-13T04:03:36.429Z,99.90
2023-02-13T04:06:09.580Z,99.90
2023-02-13T04:08:36.632Z,99.90
2023-02-13T04:11:30.675Z,99.90
2023-02-13T04:14:00.583Z,99.90
2023-02-13T04:16:40.362Z,99.90
2023-02-13T04:19:09.106Z,99.90
2023-02-13T04:21:37.734Z,99.90
2023-02-13T04:24:04.813Z,99.90
2023-02-13T04:26:38.136Z,99.90
2023-02-13T04:29:05.420Z,99.90
2023-02-13T04:31:32.583Z,99.90
2023-02-13T04:33:59.519Z,99.90
2023-02-13T04:36:26.915Z,99.90
2023-02-13T04:38:53.854Z,99.90
2023-02-13T04:41:20.804Z,99.90
2023-02-13T04:43:47.779Z,99.90
2023-02-13T04:46:14.733Z,99.90
2023-02-13T04:48:41.689Z,99.90
2023-02-13T04:51:08.634Z,99.90
2023-02-13T04:53:35.517Z,99.90
2023-02-13T04:56:02.428Z,99.90
2023-02-13T04:58:29.339Z,99.90
2023-02-13T05:00:56.589Z,99.90
2023-02-13T05:03:23.715Z,99.90
2023-02-13T05:05:50.888Z,99.90
2023-02-13T05:08:18.053Z,99.90
2023-02-13T05:10:44.992Z,99.90
2023-02-13T05:13:12.307Z,99.90
2023-02-13T05:15:39.288Z,99.90
2023-02-13T05:18:06.251Z,99.90
2023-02-13T05:20:33.185Z,99.90
2023-02-13T05:23:19.009Z,99.90
2023-02-13T05:25:45.902Z,99.90
2023-02-13T05:28:31.747Z,99.90
2023-02-13T05:30:59.058Z,99.90
2023-02-13T05:33:26.344Z,99.90
2023-02-13T05:35:53.249Z,99.90
2023-02-13T05:38:20.195Z,99.90
2023-02-13T05:40:47.082Z,99.90
2023-02-13T05:43:13.961Z,99.90
2023-02-13T05:45:40.882Z,99.90
2023-02-13T05:48:07.825Z,99.90
2023-02-13T05:50:34.756Z,99.90
2023-02-13T05:53:01.748Z,99.90
2023-02-13T05:55:28.629Z,99.90
2023-02-13T05:57:58.717Z,99.90
2023-02-13T06:00:25.864Z,99.90
2023-02-13T06:02:52.815Z,99.90
2023-02-13T06:05:19.761Z,99.90
2023-02-13T06:07:46.682Z,99.90
2023-02-13T06:10:13.555Z,99.90
2023-02-13T06:12:40.500Z,99.90
2023-02-13T06:15:07.820Z,99.90
2023-02-13T06:17:34.696Z,99.90
2023-02-13T06:20:01.581Z,99.90
2023-02-13T06:22:28.518Z,99.90
2023-02-13T06:24:55.406Z,99.90
2023-02-13T06:27:22.271Z,99.90
2023-02-13T06:29:49.224Z,99.90
2023-02-13T06:32:16.135Z,99.90
2023-02-13T06:34:42.972Z,99.90
2023-02-13T06:37:10.116Z,99.90
2023-02-13T06:39:37.053Z,99.90
2023-02-13T06:42:03.970Z,99.90
2023-02-13T06:44:30.851Z,99.90
2023-02-13T06:46:57.788Z,99.90
2023-02-13T06:49:24.664Z,99.90
2023-02-13T06:51:51.582Z,99.90
2023-02-13T06:54:18.452Z,99.90
2023-02-13T06:56:45.295Z,99.90
2023-02-13T06:59:12.169Z,99.90
2023-02-13T07:01:39.392Z,99.90
2023-02-13T07:04:06.274Z,99.90
2023-02-13T07:06:33.649Z,99.90
2023-02-13T07:09:03.029Z,99.90
2023-02-13T07:11:30.165Z,99.90
2023-02-13T07:13:57.189Z,99.90
2023-02-13T07:16:24.187Z,99.90
2023-02-13T07:18:51.120Z,99.90
2023-02-13T07:21:18.043Z,99.90
2023-02-13T07:23:44.916Z,99.90
2023-02-13T07:26:11.804Z,99.90
2023-02-13T07:28:38.768Z,99.90
2023-02-13T07:31:06.281Z,99.90
2023-02-13T07:33:34.393Z,99.90
2023-02-13T07:36:03.688Z,99.90
2023-02-13T07:38:33.872Z,99.90
2023-02-13T07:41:02.365Z,99.90
2023-02-13T07:43:30.037Z,99.90
2023-02-13T07:46:01.447Z,99.90
2023-02-13T07:48:29.051Z,99.90
2023-02-13T07:51:00.746Z,99.90
2023-02-13T07:53:27.717Z,99.90
2023-02-13T07:55:54.729Z,99.90
2023-02-13T07:58:21.769Z,99.90
2023-02-13T08:00:48.695Z,99.90
2023-02-13T08:03:15.578Z,99.90
2023-02-13T08:05:42.487Z,99.90
2023-02-13T08:08:09.477Z,99.90
2023-02-13T08:10:54.971Z,99.90
2023-02-13T08:13:21.908Z,99.90
2023-02-13T08:15:48.768Z,99.90
2023-02-13T08:18:16.662Z,99.90
2023-02-13T08:20:44.683Z,99.90
2023-02-13T08:23:12.504Z,99.90
2023-02-13T08:25:39.649Z,99.90
2023-02-13T08:28:06.889Z,99.90
2023-02-13T08:30:33.870Z,99.90
2023-02-13T08:33:00.803Z,99.90
2023-02-13T08:35:29.911Z,99.90
2023-02-13T08:37:56.912Z,99.90
2023-02-13T08:40:25.538Z,99.90
2023-02-13T08:42:52.923Z,99.90
2023-02-13T08:45:19.948Z,99.90
2023-02-13T08:47:46.848Z,99.90
2023-02-13T08:50:13.869Z,99.90
2023-02-13T08:52:40.711Z,99.90
2023-02-13T08:55:07.822Z,99.90
2023-02-13T08:57:34.756Z,99.90
2023-02-13T09:00:01.664Z,99.90
2023-02-13T09:02:28.583Z,99.90
2023-02-13T09:04:55.445Z,99.90
2023-02-13T09:07:22.351Z,99.90
2023-02-13T09:09:49.257Z,99.90
2023-02-13T09:12:16.126Z,99.90
2023-02-13T09:14:42.969Z,99.90
2023-02-13T09:17:09.862Z,99.90
2023-02-13T09:19:36.773Z,99.90
2023-02-13T09:22:03.696Z,99.90
2023-02-13T09:24:30.591Z,99.90
2023-02-13T09:26:57.468Z,99.90
2023-02-13T09:29:24.368Z,99.90
2023-02-13T09:31:51.401Z,99.90
2023-02-13T09:34:18.390Z,99.90
2023-02-13T09:36:45.250Z,99.90
2023-02-13T09:39:12.119Z,99.90
2023-02-13T09:41:42.463Z,99.90
2023-02-13T09:44:35.557Z,99.90
2023-02-13T09:47:22.710Z,99.90
2023-02-13T09:49:54.014Z,99.90
2023-02-13T09:52:21.278Z,99.90
2023-02-13T09:54:48.198Z,99.90
2023-02-13T09:57:27.784Z,99.90
2023-02-13T10:00:15.523Z,99.90
2023-02-13T10:02:57.493Z,99.90
2023-02-13T10:05:35.680Z,99.90
2023-02-13T10:08:34.060Z,99.90
2023-02-13T10:11:34.840Z,99.90
2023-02-13T10:14:22.072Z,99.90
2023-02-13T10:16:59.148Z,99.90
2023-02-13T10:19:31.827Z,99.90
2023-02-13T10:22:04.582Z,99.90
2023-02-13T10:25:04.439Z,99.90
2023-02-13T10:27:44.778Z,99.90
2023-02-13T10:30:34.981Z,99.90
2023-02-13T10:33:19.966Z,99.90
2023-02-13T10:36:08.591Z,99.90
2023-02-13T10:38:54.274Z,99.90
2023-02-13T10:41:41.045Z,99.90
2023-02-13T10:44:23.846Z,99.90
2023-02-13T10:47:18.372Z,99.90
2023-02-13T10:50:12.027Z,99.90
2023-02-13T10:53:16.487Z,99.90
2023-02-13T10:56:01.400Z,99.90
2023-02-13T10:58:44.285Z,99.90
2023-02-13T11:01:23.876Z,99.90
2023-02-13T11:04:06.296Z,99.90
2023-02-13T11:06:36.195Z,99.90
2023-02-13T11:09:04.848Z,99.90
2023-02-13T11:11:34.347Z,99.90
2023-02-13T11:14:10.609Z,99.90
2023-02-13T11:16:56.852Z,99.90
2023-02-13T11:19:48.494Z,99.90
2023-02-13T11:22:25.527Z,99.90
2023-02-13T11:25:05.273Z,96.70
2023-02-13T11:27:37.959Z,94.40
2023-02-13T11:30:23.922Z,94.00
2023-02-13T11:33:00.362Z,92.70
2023-02-13T11:35:30.970Z,92.40
2023-02-13T11:38:23.004Z,93.10
2023-02-13T11:40:54.398Z,91.80
2023-02-13T11:43:28.187Z,90.70
2023-02-13T11:46:07.884Z,90.50
2023-02-13T11:48:35.729Z,92.20
2023-02-13T11:51:03.679Z,93.20
2023-02-13T11:53:36.009Z,93.60
2023-02-13T11:56:12.113Z,93.20
2023-02-13T11:58:40.869Z,90.00
2023-02-13T12:01:20.096Z,92.00
2023-02-13T12:04:18.048Z,91.10
2023-02-13T12:07:22.784Z,90.20
2023-02-13T12:09:57.544Z,93.70
2023-02-13T12:13:03.772Z,95.90
2023-02-13T12:15:33.845Z,97.20
2023-02-13T12:18:27.744Z,98.30
2023-02-13T12:21:15.179Z,98.90
2023-02-13T12:24:20.769Z,99.50
2023-02-13T12:27:26.213Z,99.90
2023-02-13T12:30:27.289Z,99.90
2023-02-13T12:33:03.652Z,99.90
2023-02-13T12:36:04.445Z,99.90
2023-02-13T12:38:32.036Z,99.90
2023-02-13T12:41:12.267Z,99.90
2023-02-13T12:44:22.403Z,99.90
2023-02-13T12:47:09.489Z,99.90
2023-02-13T12:50:11.668Z,99.90
2023-02-13T12:53:29.617Z,99.90
2023-02-13T12:56:14.880Z,99.90
2023-02-13T12:59:00.508Z,99.90
2023-02-13T13:01:56.944Z,99.90
2023-02-13T13:04:51.576Z,99.90
2023-02-13T13:07:33.274Z,99.90
2023-02-13T13:10:00.139Z,99.90
2023-02-13T13:13:10.137Z,99.90
2023-02-13T13:15:47.368Z,99.90
2023-02-13T13:18:26.398Z,99.90
2023-02-13T13:21:08.424Z,99.90
2023-02-13T13:23:47.994Z,99.90
2023-02-13T13:26:39.041Z,99.90
2023-02-13T13:29:12.102Z,99.90
2023-02-13T13:31:39.846Z,99.90
2023-02-13T13:34:14.462Z,99.90
2023-02-13T13:37:03.994Z,99.90
2023-02-13T13:39:40.348Z,99.90
2023-02-13T13:42:10.005Z,99.90
2023-02-13T13:44:49.303Z,99.90
2023-02-13T13:47:50.121Z,99.90
2023-02-13T13:50:28.807Z,99.90
2023-02-13T13:53:25.636Z,99.90
2023-02-13T13:55:58.458Z,99.90
2023-02-13T13:58:33.125Z,99.90
2023-02-13T14:01:15.642Z,99.90
2023-02-13T14:03:44.961Z,99.90
2023-02-13T14:06:14.732Z,99.90
2023-02-13T14:08:41.639Z,99.90
2023-02-13T14:11:29.595Z,99.90
2023-02-13T14:13:56.749Z,99.90
2023-02-13T14:16:42.580Z,99.90
2023-02-13T14:19:31.374Z,99.90
2023-02-13T14:22:31.627Z,99.90
2023-02-13T14:25:06.445Z,99.90
2023-02-13T14:27:38.754Z,99.90
2023-02-13T14:30:22.284Z,99.90
2023-02-13T14:32:49.300Z,99.90
2023-02-13T14:35:27.538Z,99.90
2023-02-13T14:38:00.014Z,99.90
2023-02-13T14:40:29.375Z,99.90
2023-02-13T14:42:59.269Z,99.90
2023-02-13T14:45:32.633Z,99.90
2023-02-13T14:48:07.550Z,99.90
2023-02-13T14:50:47.564Z,99.90
2023-02-13T14:53:26.438Z,99.90
2023-02-13T14:56:02.736Z,99.90
2023-02-13T14:58:36.512Z,99.90
2023-02-13T15:01:22.514Z,99.90
2023-02-13T15:04:00.062Z,99.90
2023-02-13T15:06:36.048Z,99.90
2023-02-13T15:09:15.527Z,99.90
2023-02-13T15:11:44.589Z,99.90
2023-02-13T15:14:34.273Z,99.90
2023-02-13T15:17:09.884Z,99.90
2023-02-13T15:19:39.602Z,99.90
2023-02-13T15:22:07.466Z,99.90
2023-02-13T15:24:46.164Z,99.90
2023-02-13T15:27:20.110Z,99.90
2023-02-13T15:29:57.535Z,99.90
2023-02-13T15:32:39.658Z,99.90
2023-02-13T15:35:23.627Z,99.90
2023-02-13T15:37:50.813Z,99.90
2023-02-13T15:40:27.833Z,99.90
2023-02-13T15:42:56.671Z,99.90
2023-02-13T15:45:26.300Z,99.90
2023-02-13T15:47:56.191Z,99.90
2023-02-13T15:50:35.241Z,99.90
2023-02-13T15:53:10.292Z,99.90
2023-02-13T15:55:38.527Z,99.90
2023-02-13T15:58:05.721Z,99.90
2023-02-13T16:00:36.452Z,99.90
2023-02-13T16:03:07.754Z,99.90
2023-02-13T16:05:41.328Z,99.90
2023-02-13T16:08:29.655Z,99.90
2023-02-13T16:11:18.504Z,99.90
2023-02-13T16:14:21.781Z,99.90
2023-02-13T16:16:55.173Z,99.90
2023-02-13T16:19:40.174Z,99.90
2023-02-13T16:22:27.635Z,99.90
2023-02-13T16:25:09.964Z,99.90
2023-02-13T16:27:37.118Z,99.90
2023-02-13T16:30:07.833Z,99.90
2023-02-13T16:32:41.362Z,99.90
2023-02-13T16:35:27.259Z,99.90
2023-02-13T16:38:01.913Z,99.90
2023-02-13T16:40:31.473Z,99.90
2023-02-13T16:43:33.686Z,99.90
2023-02-13T16:46:15.743Z,99.90
2023-02-13T16:48:44.100Z,99.90
2023-02-13T16:51:11.665Z,99.90
2023-02-13T16:53:39.957Z,99.90
2023-02-13T16:56:10.923Z,99.90
2023-02-13T16:58:38.047Z,99.90
2023-02-13T17:01:06.183Z,99.90
2023-02-13T17:03:33.513Z,99.90
2023-02-13T17:06:04.303Z,99.90
2023-02-13T17:08:32.432Z,99.90
2023-02-13T17:11:07.904Z,99.90
2023-02-13T17:13:35.103Z,99.90
2023-02-13T17:16:02.179Z,99.90
2023-02-13T17:18:32.516Z,99.90
2023-02-13T17:21:00.530Z,99.90
2023-02-13T17:23:28.194Z,99.90
2023-02-13T17:25:55.978Z,99.90
2023-02-13T17:28:29.451Z,99.90
2023-02-13T17:30:59.959Z,99.90
2023-02-13T17:33:46.265Z,99.90
2023-02-13T17:36:18.321Z,99.90
2023-02-13T17:38:55.752Z,99.90
2023-02-13T17:41:23.128Z,99.90
2023-02-13T17:43:50.191Z,99.90
2023-02-13T17:46:17.406Z,99.90
2023-02-13T17:48:44.680Z,99.90
2023-02-13T17:51:14.937Z,99.90
2023-02-13T17:53:42.132Z,99.90
2023-02-13T17:56:09.030Z,99.90
2023-02-13T17:58:35.899Z,99.90
2023-02-13T18:01:03.535Z,99.90
2023-02-13T18:03:30.591Z,99.90
2023-02-13T18:05:57.490Z,99.90
2023-02-13T18:08:24.632Z,99.90
2023-02-13T18:10:51.480Z,99.90
2023-02-13T18:13:18.454Z,99.90
2023-02-13T18:15:45.939Z,99.90
2023-02-13T18:18:15.981Z,99.90
2023-02-13T18:23:10.733Z,99.90
2023-02-13T18:25:37.662Z,99.90
2023-02-13T18:28:04.532Z,99.90
2023-02-13T18:30:31.535Z,99.90
2023-02-13T18:32:59.397Z,99.90
2023-02-13T18:35:26.830Z,99.90
2023-02-13T18:37:53.775Z,99.90
2023-02-13T18:42:51.144Z,99.90
2023-02-13T18:45:18.130Z,99.90
2023-02-13T18:47:45.070Z,99.90
2023-02-13T18:50:12.233Z,99.90
2023-02-13T18:52:39.135Z,99.90
2023-02-13T18:57:34.415Z,99.90
2023-02-13T19:00:01.313Z,99.90
2023-02-13T19:02:28.345Z,99.90
2023-02-13T19:04:55.236Z,99.90
2023-02-13T19:07:22.116Z,99.90
2023-02-13T19:09:49.043Z,99.90
2023-02-13T19:12:15.958Z,99.90
2023-02-13T19:14:44.173Z,99.90
2023-02-13T19:17:11.269Z,99.90
2023-02-13T19:19:38.204Z,99.90
2023-02-13T19:22:05.056Z,99.90
2023-02-13T19:24:31.968Z,99.90
2023-02-13T19:27:00.459Z,99.90
2023-02-13T19:31:55.008Z,99.90
2023-02-13T19:34:21.922Z,99.90
2023-02-13T19:36:50.104Z,99.90
2023-02-13T19:39:17.102Z,99.90
2023-02-13T19:41:44.686Z,99.90
2023-02-13T19:44:11.608Z,99.90
2023-02-13T19:46:38.703Z,99.90
2023-02-13T19:49:06.375Z,99.90
2023-02-13T19:51:34.619Z,99.90
2023-02-13T19:54:04.203Z,99.90
2023-02-13T19:56:32.861Z,99.90
2023-02-13T19:58:59.915Z,99.90
2023-02-13T20:01:28.553Z,99.90
2023-02-13T20:03:56.076Z,99.90
2023-02-13T20:06:28.300Z,99.90
2023-02-13T20:08:59.773Z,99.90
2023-02-13T20:11:26.982Z,99.90
2023-02-13T20:14:00.685Z,99.90
2023-02-13T20:16:28.105Z,99.90
2023-02-13T20:18:55.018Z,99.90
2023-02-13T20:21:22.147Z,99.90
2023-02-13T20:23:51.329Z,99.90
2023-02-13T20:26:18.804Z,99.90
2023-02-13T20:28:46.934Z,99.90
2023-02-13T20:31:17.204Z,99.90
2023-02-13T20:33:44.631Z,99.90
2023-02-13T20:36:13.424Z,99.90
2023-02-13T20:38:40.924Z,99.90
2023-02-13T20:41:15.888Z,99.90
2023-02-13T20:43:43.666Z,99.90
2023-02-13T20:46:10.931Z,99.90
2023-02-13T20:48:39.831Z,99.90
2023-02-13T20:51:11.646Z,99.90
2023-02-13T20:53:39.808Z,99.90
2023-02-13T20:56:16.180Z,99.90
2023-02-13T20:58:44.520Z,99.90
2023-02-13T21:01:29.526Z,99.90
2023-02-13T21:03:57.030Z,99.90
2023-02-13T21:06:27.318Z,99.90
2023-02-13T21:08:54.381Z,99.90
2023-02-13T21:11:22.685Z,99.90
2023-02-13T21:13:50.460Z,99.90
2023-02-13T21:16:23.138Z,99.90
2023-02-13T21:18:52.768Z,99.90
2023-02-13T21:21:21.737Z,99.90
2023-02-13T21:23:51.899Z,99.90
2023-02-13T21:26:18.775Z,99.90
2023-02-13T21:28:47.996Z,99.90
2023-02-13T21:31:29.309Z,99.90
2023-02-13T21:34:08.435Z,99.90
2023-02-13T21:36:36.820Z,99.90
2023-02-13T21:39:06.002Z,99.90
2023-02-13T21:41:33.374Z,99.90
2023-02-13T21:44:02.432Z,99.90
2023-02-13T21:46:31.114Z,99.90
2023-02-13T21:49:03.799Z,99.90
2023-02-13T21:51:32.760Z,99.90
2023-02-13T21:54:02.601Z,99.90
2023-02-13T21:56:32.341Z,99.90
2023-02-13T21:59:00.224Z,99.90
2023-02-13T22:01:34.883Z,99.90
2023-02-13T22:04:07.329Z,99.90
2023-02-13T22:06:36.552Z,99.90
2023-02-13T22:09:09.959Z,99.90
2023-02-13T22:11:37.982Z,99.90
2023-02-13T22:14:06.398Z,99.90
2023-02-13T22:16:35.992Z,99.90
2023-02-13T22:19:04.093Z,99.90
2023-02-13T22:21:32.635Z,99.90
2023-02-13T22:24:00.227Z,99.90
2023-02-13T22:26:29.619Z,99.90
2023-02-13T22:29:01.250Z,99.90
2023-02-13T22:31:28.555Z,99.90
2023-02-13T22:34:05.252Z,99.90
2023-02-13T22:36:34.358Z,99.90
2023-02-13T22:39:01.299Z,99.90
2023-02-13T22:41:28.237Z,99.90
2023-02-13T22:43:55.483Z,99.90
2023-02-13T22:46:29.111Z,99.90
2023-02-13T22:48:56.591Z,99.90
2023-02-13T22:51:29.925Z,99.90
2023-02-13T22:53:58.715Z,99.90
2023-02-13T22:56:27.739Z,99.90
2023-02-13T22:58:55.209Z,99.90
2023-02-13T23:01:24.244Z,99.90
2023-02-13T23:03:51.847Z,99.90
2023-02-13T23:06:19.620Z,99.90
2023-02-13T23:08:49.129Z,99.90
2023-02-13T23:11:36.205Z,99.90
2023-02-13T23:14:04.296Z,99.90
2023-02-13T23:16:50.313Z,99.90
2023-02-13T23:19:17.229Z,99.90
2023-02-13T23:24:11.427Z,99.90
2023-02-13T23:26:38.735Z,99.90
2023-02-13T23:29:05.688Z,99.90
2023-02-13T23:31:32.629Z,99.90
2023-02-13T23:33:59.531Z,99.90
2023-02-13T23:36:26.483Z,99.90
2023-02-13T23:38:53.369Z,99.90
2023-02-13T23:41:21.102Z,99.90
2023-02-13T23:46:15.323Z,99.90
2023-02-13T23:48:42.407Z,99.90
2023-02-13T23:51:09.383Z,99.90
2023-02-13T23:53:36.923Z,99.90
2023-02-13T23:56:05.160Z,99.90
2023-02-13T23:58:32.090Z,99.90
